sensor_id;sensor_type;location;lat;lon;timestamp;pressure;altitude;pressure_sealevel;temperature;humidity
61506;BME280;47366;51.916;4.574;2022-12-07T00:01:12;102025.50;;;4.14;96.10
61506;BME280;47366;51.916;4.574;2022-12-07T00:03:39;102028.16;;;4.17;96.15
61506;BME280;47366;51.916;4.574;2022-12-07T00:06:06;102046.00;;;4.17;96.24
61506;BME280;47366;51.916;4.574;2022-12-07T00:08:32;102049.59;;;4.17;96.22
61506;BME280;47366;51.916;4.574;2022-12-07T00:11:16;102039.75;;;4.18;96.56
61506;BME280;47366;51.916;4.574;2022-12-07T00:13:42;102041.50;;;4.19;96.93
61506;BME280;47366;51.916;4.574;2022-12-07T00:16:10;102025.41;;;4.22;96.64
61506;BME280;47366;51.916;4.574;2022-12-07T00:18:36;102029.81;;;4.24;97.14
61506;BME280;47366;51.916;4.574;2022-12-07T00:21:05;102020.91;;;4.22;97.16
61506;BME280;47366;51.916;4.574;2022-12-07T00:23:31;102018.19;;;4.24;96.64
61506;BME280;47366;51.916;4.574;2022-12-07T00:26:24;102017.31;;;4.23;96.28
61506;BME280;47366;51.916;4.574;2022-12-07T00:28:49;102017.31;;;4.23;96.23
61506;BME280;47366;51.916;4.574;2022-12-07T00:31:17;102014.69;;;4.20;96.31
61506;BME280;47366;51.916;4.574;2022-12-07T00:33:42;102020.94;;;4.19;96.07
61506;BME280;47366;51.916;4.574;2022-12-07T00:36:11;102009.41;;;4.14;96.66
61506;BME280;47366;51.916;4.574;2022-12-07T00:38:37;102007.66;;;4.13;96.09
61506;BME280;47366;51.916;4.574;2022-12-07T00:41:15;102005.03;;;4.10;96.25
61506;BME280;47366;51.916;4.574;2022-12-07T00:43:42;102008.66;;;4.06;96.17
61506;BME280;47366;51.916;4.574;2022-12-07T00:46:08;101998.00;;;4.00;96.01
61506;BME280;47366;51.916;4.574;2022-12-07T00:48:34;102007.03;;;3.96;95.93
61506;BME280;47366;51.916;4.574;2022-12-07T00:50:59;102010.66;;;3.92;96.21
61506;BME280;47366;51.916;4.574;2022-12-07T00:53:25;102015.16;;;3.88;95.87
61506;BME280;47366;51.916;4.574;2022-12-07T00:55:51;102006.25;;;3.86;96.01
61506;BME280;47366;51.916;4.574;2022-12-07T00:58:18;102001.88;;;3.80;96.08
61506;BME280;47366;51.916;4.574;2022-12-07T01:00:43;102006.44;;;3.77;96.31
61506;BME280;47366;51.916;4.574;2022-12-07T01:03:11;102003.78;;;3.74;96.13
61506;BME280;47366;51.916;4.574;2022-12-07T01:05:37;102005.63;;;3.70;96.28
61506;BME280;47366;51.916;4.574;2022-12-07T01:08:02;102008.34;;;3.67;96.14
61506;BME280;47366;51.916;4.574;2022-12-07T01:10:28;102019.09;;;3.64;95.89
61506;BME280;47366;51.916;4.574;2022-12-07T01:12:56;102010.22;;;3.60;96.19
61506;BME280;47366;51.916;4.574;2022-12-07T01:15:22;102004.06;;;3.55;96.06
61506;BME280;47366;51.916;4.574;2022-12-07T01:17:47;102019.22;;;3.56;95.95
61506;BME280;47366;51.916;4.574;2022-12-07T01:20:13;102019.22;;;3.55;95.94
61506;BME280;47366;51.916;4.574;2022-12-07T01:22:40;102021.13;;;3.48;95.95
61506;BME280;47366;51.916;4.574;2022-12-07T01:25:07;102018.44;;;3.48;96.05
61506;BME280;47366;51.916;4.574;2022-12-07T01:27:33;102019.31;;;3.47;96.07
61506;BME280;47366;51.916;4.574;2022-12-07T01:29:59;102004.19;;;3.45;96.19
61506;BME280;47366;51.916;4.574;2022-12-07T01:32:25;102010.47;;;3.44;96.22
61506;BME280;47366;51.916;4.574;2022-12-07T01:34:50;102008.72;;;3.41;95.88
61506;BME280;47366;51.916;4.574;2022-12-07T01:37:15;101996.25;;;3.37;95.82
61506;BME280;47366;51.916;4.574;2022-12-07T01:39:41;102006.09;;;3.33;95.99
61506;BME280;47366;51.916;4.574;2022-12-07T01:42:10;102006.16;;;3.32;95.83
61506;BME280;47366;51.916;4.574;2022-12-07T01:47:40;102002.66;;;3.25;95.39
61506;BME280;47366;51.916;4.574;2022-12-07T01:50:06;102013.41;;;3.22;95.85
61506;BME280;47366;51.916;4.574;2022-12-07T01:52:33;102019.66;;;3.23;95.66
61506;BME280;47366;51.916;4.574;2022-12-07T01:55:04;102009.00;;;3.18;95.17
61506;BME280;47366;51.916;4.574;2022-12-07T01:57:32;102009.03;;;3.15;95.35
61506;BME280;47366;51.916;4.574;2022-12-07T01:59:59;102011.72;;;3.12;95.75
61506;BME280;47366;51.916;4.574;2022-12-07T02:02:35;102014.44;;;3.10;95.35
61506;BME280;47366;51.916;4.574;2022-12-07T02:05:04;102023.41;;;3.08;95.52
61506;BME280;47366;51.916;4.574;2022-12-07T02:07:31;102019.81;;;3.07;95.46
61506;BME280;47366;51.916;4.574;2022-12-07T02:09:57;102032.31;;;3.08;95.59
61506;BME280;47366;51.916;4.574;2022-12-07T02:12:36;102022.47;;;3.09;95.51
61506;BME280;47366;51.916;4.574;2022-12-07T02:15:01;102001.03;;;3.12;95.86
61506;BME280;47366;51.916;4.574;2022-12-07T02:17:44;102003.69;;;3.13;95.81
61506;BME280;47366;51.916;4.574;2022-12-07T02:23:14;102002.75;;;3.16;96.16
61506;BME280;47366;51.916;4.574;2022-12-07T02:26:05;102005.44;;;3.14;95.89
61506;BME280;47366;51.916;4.574;2022-12-07T02:28:37;101997.41;;;3.14;96.23
61506;BME280;47366;51.916;4.574;2022-12-07T02:31:18;101987.69;;;3.10;96.22
61506;BME280;47366;51.916;4.574;2022-12-07T02:34:08;101989.44;;;3.10;95.89
61506;BME280;47366;51.916;4.574;2022-12-07T02:36:40;101988.63;;;3.05;95.52
61506;BME280;47366;51.916;4.574;2022-12-07T02:41:47;101983.34;;;2.98;95.61
61506;BME280;47366;51.916;4.574;2022-12-07T02:44:17;101997.63;;;2.99;95.42
61506;BME280;47366;51.916;4.574;2022-12-07T02:46:48;101995.88;;;2.95;95.05
61506;BME280;47366;51.916;4.574;2022-12-07T02:49:16;102004.78;;;2.95;95.47
61506;BME280;47366;51.916;4.574;2022-12-07T02:51:43;102000.34;;;2.96;95.56
61506;BME280;47366;51.916;4.574;2022-12-07T02:54:14;101999.47;;;2.94;95.67
61506;BME280;47366;51.916;4.574;2022-12-07T02:56:47;102000.34;;;2.94;95.86
61506;BME280;47366;51.916;4.574;2022-12-07T03:13:28;102005.66;;;2.97;95.92
61506;BME280;47366;51.916;4.574;2022-12-07T03:16:12;102001.25;;;2.93;96.10
61506;BME280;47366;51.916;4.574;2022-12-07T03:18:53;101997.72;;;2.91;95.58
61506;BME280;47366;51.916;4.574;2022-12-07T03:21:25;101999.50;;;2.89;95.87
61506;BME280;47366;51.916;4.574;2022-12-07T03:23:56;102002.19;;;2.88;95.62
61506;BME280;47366;51.916;4.574;2022-12-07T03:26:25;101990.59;;;2.89;95.63
61506;BME280;47366;51.916;4.574;2022-12-07T03:28:55;101992.38;;;2.90;95.82
61506;BME280;47366;51.916;4.574;2022-12-07T03:31:33;101986.09;;;2.92;95.93
61506;BME280;47366;51.916;4.574;2022-12-07T03:36:43;101981.59;;;2.96;95.94
61506;BME280;47366;51.916;4.574;2022-12-07T03:41:46;101988.72;;;2.98;96.49
61506;BME280;47366;51.916;4.574;2022-12-07T03:44:12;101977.03;;;3.03;96.42
61506;BME280;47366;51.916;4.574;2022-12-07T03:55:14;101980.59;;;3.06;96.01
61506;BME280;47366;51.916;4.574;2022-12-07T03:57:42;101981.50;;;3.04;96.36
61506;BME280;47366;51.916;4.574;2022-12-07T04:00:10;101972.63;;;3.00;95.99
61506;BME280;47366;51.916;4.574;2022-12-07T04:02:36;101973.53;;;2.99;96.27
61506;BME280;47366;51.916;4.574;2022-12-07T04:05:02;101975.34;;;2.97;96.32
61506;BME280;47366;51.916;4.574;2022-12-07T04:07:28;101979.81;;;2.98;95.92
61506;BME280;47366;51.916;4.574;2022-12-07T04:09:53;101970.00;;;2.95;96.26
61506;BME280;47366;51.916;4.574;2022-12-07T04:12:20;101972.72;;;2.92;96.17
61506;BME280;47366;51.916;4.574;2022-12-07T04:14:46;101970.09;;;2.88;95.74
61506;BME280;47366;51.916;4.574;2022-12-07T04:17:11;101977.22;;;2.87;95.79
61506;BME280;47366;51.916;4.574;2022-12-07T04:19:37;101971.94;;;2.84;95.94
61506;BME280;47366;51.916;4.574;2022-12-07T04:22:04;101971.94;;;2.81;95.91
61506;BME280;47366;51.916;4.574;2022-12-07T04:24:29;101971.97;;;2.78;96.16
61506;BME280;47366;51.916;4.574;2022-12-07T04:26:55;101968.44;;;2.78;96.10
61506;BME280;47366;51.916;4.574;2022-12-07T04:29:21;101969.34;;;2.75;95.92
61506;BME280;47366;51.916;4.574;2022-12-07T04:31:47;101976.47;;;2.76;96.10
61506;BME280;47366;51.916;4.574;2022-12-07T04:34:13;101972.06;;;2.72;95.92
61506;BME280;47366;51.916;4.574;2022-12-07T04:36:39;101971.16;;;2.73;96.01
61506;BME280;47366;51.916;4.574;2022-12-07T04:39:11;101960.50;;;2.70;95.84
61506;BME280;47366;51.916;4.574;2022-12-07T04:41:38;101950.63;;;2.73;96.32
61506;BME280;47366;51.916;4.574;2022-12-07T04:44:03;101953.31;;;2.75;95.94
61506;BME280;47366;51.916;4.574;2022-12-07T04:46:32;101951.50;;;2.75;96.14
61506;BME280;47366;51.916;4.574;2022-12-07T04:48:58;101955.06;;;2.76;96.07
61506;BME280;47366;51.916;4.574;2022-12-07T04:51:26;101950.56;;;2.80;95.61
61506;BME280;47366;51.916;4.574;2022-12-07T04:53:51;101947.03;;;2.76;95.99
61506;BME280;47366;51.916;4.574;2022-12-07T04:56:18;101952.38;;;2.78;95.79
61506;BME280;47366;51.916;4.574;2022-12-07T04:58:45;101938.13;;;2.74;95.72
61506;BME280;47366;51.916;4.574;2022-12-07T05:01:12;101941.72;;;2.73;95.81
61506;BME280;47366;51.916;4.574;2022-12-07T05:03:37;101955.09;;;2.73;95.71
61506;BME280;47366;51.916;4.574;2022-12-07T05:06:03;101950.63;;;2.73;95.60
61506;BME280;47366;51.916;4.574;2022-12-07T05:08:29;101934.63;;;2.70;95.90
61506;BME280;47366;51.916;4.574;2022-12-07T05:10:54;101947.13;;;2.70;96.29
61506;BME280;47366;51.916;4.574;2022-12-07T05:13:19;101944.44;;;2.70;96.02
61506;BME280;47366;51.916;4.574;2022-12-07T05:15:46;101935.50;;;2.71;95.91
61506;BME280;47366;51.916;4.574;2022-12-07T05:18:12;101938.19;;;2.71;95.76
61506;BME280;47366;51.916;4.574;2022-12-07T05:20:38;101948.00;;;2.70;95.61
61506;BME280;47366;51.916;4.574;2022-12-07T05:23:03;101942.69;;;2.66;95.83
61506;BME280;47366;51.916;4.574;2022-12-07T05:25:29;101949.84;;;2.64;95.74
61506;BME280;47366;51.916;4.574;2022-12-07T05:27:55;101947.25;;;2.58;95.77
61506;BME280;47366;51.916;4.574;2022-12-07T05:30:22;101945.47;;;2.57;95.86
61506;BME280;47366;51.916;4.574;2022-12-07T05:32:47;101945.50;;;2.53;95.70
61506;BME280;47366;51.916;4.574;2022-12-07T05:35:13;101944.66;;;2.50;95.13
61506;BME280;47366;51.916;4.574;2022-12-07T05:37:38;101947.41;;;2.44;95.17
61506;BME280;47366;51.916;4.574;2022-12-07T05:40:04;101946.53;;;2.43;95.56
61506;BME280;47366;51.916;4.574;2022-12-07T05:42:30;101945.66;;;2.41;95.47
61506;BME280;47366;51.916;4.574;2022-12-07T05:44:55;101942.97;;;2.40;95.24
61506;BME280;47366;51.916;4.574;2022-12-07T05:47:21;101947.44;;;2.38;95.09
61506;BME280;47366;51.916;4.574;2022-12-07T05:49:46;101939.47;;;2.36;95.67
61506;BME280;47366;51.916;4.574;2022-12-07T05:52:11;101940.34;;;2.35;95.06
61506;BME280;47366;51.916;4.574;2022-12-07T05:54:37;101927.91;;;2.31;95.28
61506;BME280;47366;51.916;4.574;2022-12-07T05:57:03;101930.63;;;2.28;95.36
61506;BME280;47366;51.916;4.574;2022-12-07T05:59:28;101935.13;;;2.24;95.54
61506;BME280;47366;51.916;4.574;2022-12-07T06:02:04;101935.13;;;2.24;95.32
61506;BME280;47366;51.916;4.574;2022-12-07T06:04:33;101939.59;;;2.21;95.54
61506;BME280;47366;51.916;4.574;2022-12-07T06:06:59;101938.72;;;2.19;95.17
61506;BME280;47366;51.916;4.574;2022-12-07T06:09:26;101929.84;;;2.15;95.46
61506;BME280;47366;51.916;4.574;2022-12-07T06:11:53;101926.31;;;2.11;95.31
61506;BME280;47366;51.916;4.574;2022-12-07T06:14:37;101931.66;;;2.11;95.03
61506;BME280;47366;51.916;4.574;2022-12-07T06:17:03;101926.34;;;2.07;94.75
61506;BME280;47366;51.916;4.574;2022-12-07T06:19:28;101926.38;;;2.05;94.82
61506;BME280;47366;51.916;4.574;2022-12-07T06:21:54;101929.06;;;2.02;94.54
61506;BME280;47366;51.916;4.574;2022-12-07T06:24:19;101933.53;;;2.02;94.62
61506;BME280;47366;51.916;4.574;2022-12-07T06:26:45;101933.59;;;1.94;95.04
61506;BME280;47366;51.916;4.574;2022-12-07T06:29:11;101932.72;;;1.94;94.71
61506;BME280;47366;51.916;4.574;2022-12-07T06:31:37;101946.03;;;1.97;94.90
61506;BME280;47366;51.916;4.574;2022-12-07T06:34:05;101947.84;;;1.96;94.93
61506;BME280;47366;51.916;4.574;2022-12-07T06:36:31;101947.84;;;1.96;94.79
61506;BME280;47366;51.916;4.574;2022-12-07T06:38:57;101943.41;;;1.94;95.11
61506;BME280;47366;51.916;4.574;2022-12-07T06:41:22;101944.28;;;1.94;94.80
61506;BME280;47366;51.916;4.574;2022-12-07T06:43:47;101945.19;;;1.90;94.79
61506;BME280;47366;51.916;4.574;2022-12-07T06:46:14;101941.63;;;1.92;94.94
61506;BME280;47366;51.916;4.574;2022-12-07T06:48:40;101950.56;;;1.87;94.75
61506;BME280;47366;51.916;4.574;2022-12-07T06:51:05;101943.44;;;1.87;94.67
61506;BME280;47366;51.916;4.574;2022-12-07T06:53:31;101940.81;;;1.83;94.98
61506;BME280;47366;51.916;4.574;2022-12-07T06:55:56;101943.44;;;1.86;94.88
61506;BME280;47366;51.916;4.574;2022-12-07T06:58:21;101945.25;;;1.81;94.39
61506;BME280;47366;51.916;4.574;2022-12-07T07:00:48;101951.53;;;1.80;94.47
61506;BME280;47366;51.916;4.574;2022-12-07T07:03:14;101954.19;;;1.80;94.68
61506;BME280;47366;51.916;4.574;2022-12-07T07:05:39;101948.84;;;1.78;95.22
61506;BME280;47366;51.916;4.574;2022-12-07T07:08:05;101950.66;;;1.79;95.10
61506;BME280;47366;51.916;4.574;2022-12-07T07:10:30;101955.94;;;1.81;94.79
61506;BME280;47366;51.916;4.574;2022-12-07T07:12:56;101954.22;;;1.77;94.97
61506;BME280;47366;51.916;4.574;2022-12-07T07:15:21;101959.53;;;1.81;95.67
61506;BME280;47366;51.916;4.574;2022-12-07T07:17:47;101959.47;;;1.87;95.53
61506;BME280;47366;51.916;4.574;2022-12-07T07:20:13;101957.63;;;1.92;95.88
61506;BME280;47366;51.916;4.574;2022-12-07T07:22:39;101954.06;;;1.95;96.01
61506;BME280;47366;51.916;4.574;2022-12-07T07:25:04;101951.38;;;1.97;95.87
61506;BME280;47366;51.916;4.574;2022-12-07T07:27:29;101949.59;;;1.97;95.29
61506;BME280;47366;51.916;4.574;2022-12-07T07:29:55;101956.72;;;1.98;95.44
61506;BME280;47366;51.916;4.574;2022-12-07T07:32:20;101952.25;;;1.97;95.93
61506;BME280;47366;51.916;4.574;2022-12-07T07:34:47;101951.38;;;1.98;95.33
61506;BME280;47366;51.916;4.574;2022-12-07T07:37:12;101955.81;;;1.98;95.56
61506;BME280;47366;51.916;4.574;2022-12-07T07:39:38;101954.94;;;1.97;95.03
61506;BME280;47366;51.916;4.574;2022-12-07T07:42:03;101951.41;;;1.90;95.21
61506;BME280;47366;51.916;4.574;2022-12-07T07:44:29;101947.91;;;1.88;95.35
61506;BME280;47366;51.916;4.574;2022-12-07T07:46:54;101949.66;;;1.91;95.17
61506;BME280;47366;51.916;4.574;2022-12-07T07:49:20;101950.56;;;1.88;95.18
61506;BME280;47366;51.916;4.574;2022-12-07T07:51:45;101951.44;;;1.89;95.40
61506;BME280;47366;51.916;4.574;2022-12-07T07:54:10;101950.53;;;1.91;95.27
61506;BME280;47366;51.916;4.574;2022-12-07T07:56:36;101954.09;;;1.90;95.60
61506;BME280;47366;51.916;4.574;2022-12-07T07:59:01;101963.00;;;1.94;95.34
61506;BME280;47366;51.916;4.574;2022-12-07T08:01:27;101954.09;;;1.92;95.17
61506;BME280;47366;51.916;4.574;2022-12-07T08:03:52;101957.63;;;1.96;95.44
61506;BME280;47366;51.916;4.574;2022-12-07T08:06:18;101957.59;;;1.97;95.19
61506;BME280;47366;51.916;4.574;2022-12-07T08:08:43;101962.94;;;1.97;95.36
61506;BME280;47366;51.916;4.574;2022-12-07T08:11:09;101955.84;;;1.93;95.77
61506;BME280;47366;51.916;4.574;2022-12-07T08:13:35;101963.00;;;1.94;95.22
61506;BME280;47366;51.916;4.574;2022-12-07T08:16:05;101967.41;;;1.97;95.26
61506;BME280;47366;51.916;4.574;2022-12-07T08:18:30;101963.84;;;1.98;95.48
61506;BME280;47366;51.916;4.574;2022-12-07T08:21:00;101957.59;;;1.97;95.39
61506;BME280;47366;51.916;4.574;2022-12-07T08:23:28;101954.03;;;2.01;95.73
61506;BME280;47366;51.916;4.574;2022-12-07T08:25:54;101956.69;;;2.03;95.28
61506;BME280;47366;51.916;4.574;2022-12-07T08:28:20;101957.56;;;2.03;95.39
61506;BME280;47366;51.916;4.574;2022-12-07T08:30:45;101959.34;;;2.04;95.15
61506;BME280;47366;51.916;4.574;2022-12-07T08:33:10;101959.34;;;2.06;94.96
61506;BME280;47366;51.916;4.574;2022-12-07T08:35:36;101963.75;;;2.10;94.96
61506;BME280;47366;51.916;4.574;2022-12-07T08:38:01;101970.84;;;2.11;95.14
61506;BME280;47366;51.916;4.574;2022-12-07T08:40:28;101977.94;;;2.17;95.12
61506;BME280;47366;51.916;4.574;2022-12-07T08:42:53;101977.06;;;2.18;95.11
61506;BME280;47366;51.916;4.574;2022-12-07T08:45:20;101969.88;;;2.23;95.37
61506;BME280;47366;51.916;4.574;2022-12-07T08:47:57;101966.28;;;2.24;95.25
61506;BME280;47366;51.916;4.574;2022-12-07T08:50:26;101973.38;;;2.29;95.48
61506;BME280;47366;51.916;4.574;2022-12-07T08:52:53;101968.91;;;2.31;95.31
61506;BME280;47366;51.916;4.574;2022-12-07T08:55:20;101963.53;;;2.33;95.17
61506;BME280;47366;51.916;4.574;2022-12-07T08:57:46;101970.63;;;2.39;94.95
61506;BME280;47366;51.916;4.574;2022-12-07T09:00:12;101971.44;;;2.45;95.11
61506;BME280;47366;51.916;4.574;2022-12-07T09:02:38;101974.09;;;2.48;95.32
61506;BME280;47366;51.916;4.574;2022-12-07T09:05:03;101970.47;;;2.55;95.28
61506;BME280;47366;51.916;4.574;2022-12-07T09:07:30;101967.69;;;2.63;95.43
61506;BME280;47366;51.916;4.574;2022-12-07T09:09:57;101969.41;;;2.69;95.66
61506;BME280;47366;51.916;4.574;2022-12-07T09:12:22;101954.19;;;2.75;95.83
61506;BME280;47366;51.916;4.574;2022-12-07T09:14:47;101955.00;;;2.84;96.22
61506;BME280;47366;51.916;4.574;2022-12-07T09:17:13;101961.19;;;2.86;96.62
61506;BME280;47366;51.916;4.574;2022-12-07T09:19:38;101953.97;;;2.92;96.17
61506;BME280;47366;51.916;4.574;2022-12-07T09:22:04;101956.56;;;3.02;96.15
61506;BME280;47366;51.916;4.574;2022-12-07T09:24:30;101959.09;;;3.12;96.60
61506;BME280;47366;51.916;4.574;2022-12-07T09:26:57;101963.38;;;3.24;96.29
61506;BME280;47366;51.916;4.574;2022-12-07T09:29:22;101965.06;;;3.34;95.94
61506;BME280;47366;51.916;4.574;2022-12-07T09:31:48;101977.38;;;3.46;96.01
61506;BME280;47366;51.916;4.574;2022-12-07T09:34:13;101971.03;;;3.53;95.49
61506;BME280;47366;51.916;4.574;2022-12-07T09:36:38;101971.00;;;3.56;95.46
61506;BME280;47366;51.916;4.574;2022-12-07T09:39:04;101962.88;;;3.61;95.86
61506;BME280;47366;51.916;4.574;2022-12-07T09:41:30;101964.63;;;3.65;95.69
61506;BME280;47366;51.916;4.574;2022-12-07T09:44:03;101955.66;;;3.68;95.49
61506;BME280;47366;51.916;4.574;2022-12-07T09:46:34;101961.84;;;3.71;96.44
61506;BME280;47366;51.916;4.574;2022-12-07T09:49:01;101953.78;;;3.74;96.56
61506;BME280;47366;51.916;4.574;2022-12-07T09:51:26;101958.19;;;3.77;96.57
61506;BME280;47366;51.916;4.574;2022-12-07T09:53:54;101958.09;;;3.83;96.94
61506;BME280;47366;51.916;4.574;2022-12-07T09:56:20;101947.41;;;3.80;97.25
61506;BME280;47366;51.916;4.574;2022-12-07T09:58:47;101943.88;;;3.79;97.14
61506;BME280;47366;51.916;4.574;2022-12-07T10:01:18;101945.63;;;3.80;97.34
61506;BME280;47366;51.916;4.574;2022-12-07T10:03:54;101955.38;;;3.85;97.24
61506;BME280;47366;51.916;4.574;2022-12-07T10:06:21;101943.88;;;3.78;97.23
61506;BME280;47366;51.916;4.574;2022-12-07T10:08:47;101953.66;;;3.79;97.37
61506;BME280;47366;51.916;4.574;2022-12-07T10:11:12;101947.38;;;3.83;97.37
61506;BME280;47366;51.916;4.574;2022-12-07T10:13:48;101950.75;;;3.94;97.12
61506;BME280;47366;51.916;4.574;2022-12-07T10:18:55;101935.19;;;4.18;96.52
61506;BME280;47366;51.916;4.574;2022-12-07T10:21:25;101932.22;;;4.33;96.09
61506;BME280;47366;51.916;4.574;2022-12-07T10:29:16;101933.41;;;5.08;94.62
61506;BME280;47366;51.916;4.574;2022-12-07T10:31:43;101937.81;;;5.13;93.93
61506;BME280;47366;51.916;4.574;2022-12-07T10:34:37;101933.44;;;5.07;93.74
61506;BME280;47366;51.916;4.574;2022-12-07T10:42:16;101915.69;;;5.01;93.61
61506;BME280;47366;51.916;4.574;2022-12-07T10:44:43;101918.94;;;5.56;92.64
61506;BME280;47366;51.916;4.574;2022-12-07T10:47:36;101913.38;;;6.01;91.84
61506;BME280;47366;51.916;4.574;2022-12-07T10:53:10;101913.59;;;5.90;91.79
61506;BME280;47366;51.916;4.574;2022-12-07T10:55:45;101910.56;;;6.06;90.94
61506;BME280;47366;51.916;4.574;2022-12-07T11:03:45;101901.25;;;5.46;91.73
61506;BME280;47366;51.916;4.574;2022-12-07T11:06:22;101902.44;;;5.32;92.67
61506;BME280;47366;51.916;4.574;2022-12-07T11:11:47;101884.72;;;5.63;93.59
61506;BME280;47366;51.916;4.574;2022-12-07T11:22:19;101868.84;;;5.52;93.61
61506;BME280;47366;51.916;4.574;2022-12-07T11:25:00;101867.91;;;5.54;93.78
61506;BME280;47366;51.916;4.574;2022-12-07T11:27:37;101864.22;;;5.59;93.71
61506;BME280;47366;51.916;4.574;2022-12-07T11:30:13;101862.28;;;5.64;93.60
61506;BME280;47366;51.916;4.574;2022-12-07T11:33:01;101846.69;;;5.78;94.11
61506;BME280;47366;51.916;4.574;2022-12-07T11:35:35;101857.06;;;5.95;93.83
61506;BME280;47366;51.916;4.574;2022-12-07T11:38:16;101843.41;;;6.03;92.52
61506;BME280;47366;51.916;4.574;2022-12-07T11:40:48;101842.28;;;6.11;92.47
61506;BME280;47366;51.916;4.574;2022-12-07T11:46:15;101835.91;;;6.15;91.73
61506;BME280;47366;51.916;4.574;2022-12-07T11:48:49;101854.72;;;6.15;91.24
61506;BME280;47366;51.916;4.574;2022-12-07T11:51:19;101837.06;;;6.05;91.39
61506;BME280;47366;51.916;4.574;2022-12-07T11:54:19;101839.94;;;5.99;91.23
61506;BME280;47366;51.916;4.574;2022-12-07T11:56:49;101844.63;;;5.89;91.40
61506;BME280;47366;51.916;4.574;2022-12-07T11:59:25;101863.66;;;5.82;91.36
61506;BME280;47366;51.916;4.574;2022-12-07T12:02:14;101864.25;;;5.57;91.61
61506;BME280;47366;51.916;4.574;2022-12-07T12:04:53;101871.09;;;5.33;92.19
61506;BME280;47366;51.916;4.574;2022-12-07T12:07:22;101867.16;;;5.10;92.88
61506;BME280;47366;51.916;4.574;2022-12-07T12:09:59;101877.25;;;4.98;93.74
61506;BME280;47366;51.916;4.574;2022-12-07T12:12:55;101866.66;;;4.92;93.97
61506;BME280;47366;51.916;4.574;2022-12-07T12:18:10;101856.09;;;4.84;93.98
61506;BME280;47366;51.916;4.574;2022-12-07T12:20:46;101855.16;;;4.85;94.03
61506;BME280;47366;51.916;4.574;2022-12-07T12:23:18;101852.41;;;4.88;94.69
61506;BME280;47366;51.916;4.574;2022-12-07T12:25:52;101842.53;;;4.90;94.89
61506;BME280;47366;51.916;4.574;2022-12-07T12:31:28;101829.03;;;4.93;94.64
61506;BME280;47366;51.916;4.574;2022-12-07T12:33:58;101829.66;;;5.06;94.73
61506;BME280;47366;51.916;4.574;2022-12-07T12:59:34;101793.59;;;6.22;91.45
61506;BME280;47366;51.916;4.574;2022-12-07T13:15:38;101777.72;;;6.43;91.23
61506;BME280;47366;51.916;4.574;2022-12-07T13:21:40;101772.91;;;6.54;89.71
61506;BME280;47366;51.916;4.574;2022-12-07T13:28:50;101776.50;;;6.23;90.69
61506;BME280;47366;51.916;4.574;2022-12-07T13:31:24;101763.53;;;6.06;91.28
61506;BME280;47366;51.916;4.574;2022-12-07T13:33:54;101777.34;;;5.91;91.61
61506;BME280;47366;51.916;4.574;2022-12-07T13:36:25;101775.00;;;5.79;91.90
61506;BME280;47366;51.916;4.574;2022-12-07T13:39:44;101767.28;;;5.65;91.49
61506;BME280;47366;51.916;4.574;2022-12-07T13:41:41;101761.16;;;5.60;91.71
61506;BME280;47366;51.916;4.574;2022-12-07T13:44:14;101746.00;;;5.57;92.12
61506;BME280;47366;51.916;4.574;2022-12-07T13:49:25;101743.31;;;5.57;91.87
61506;BME280;47366;51.916;4.574;2022-12-07T13:51:52;101742.59;;;5.50;91.49
61506;BME280;47366;51.916;4.574;2022-12-07T13:54:19;101740.94;;;5.46;92.02
61506;BME280;47366;51.916;4.574;2022-12-07T13:56:50;101739.13;;;5.45;92.21
61506;BME280;47366;51.916;4.574;2022-12-07T13:59:21;101723.97;;;5.43;92.49
61506;BME280;47366;51.916;4.574;2022-12-07T14:01:48;101722.78;;;5.54;92.05
61506;BME280;47366;51.916;4.574;2022-12-07T14:04:36;101722.72;;;6.22;90.96
61506;BME280;47366;51.916;4.574;2022-12-07T14:07:56;101717.22;;;6.26;89.19
61506;BME280;47366;51.916;4.574;2022-12-07T14:10:31;101718.66;;;7.49;85.57
61506;BME280;47366;51.916;4.574;2022-12-07T14:12:58;101717.72;;;7.23;83.66
61506;BME280;47366;51.916;4.574;2022-12-07T14:15:28;101711.75;;;6.87;84.97
61506;BME280;47366;51.916;4.574;2022-12-07T14:17:55;101715.56;;;6.52;86.26
61506;BME280;47366;51.916;4.574;2022-12-07T14:20:35;101711.94;;;6.23;87.51
61506;BME280;47366;51.916;4.574;2022-12-07T14:23:02;101712.59;;;6.00;87.62
61506;BME280;47366;51.916;4.574;2022-12-07T14:25:48;101710.25;;;5.86;88.61
61506;BME280;47366;51.916;4.574;2022-12-07T14:28:33;101712.41;;;5.73;89.70
61506;BME280;47366;51.916;4.574;2022-12-07T14:31:00;101712.66;;;5.64;89.58
61506;BME280;47366;51.916;4.574;2022-12-07T14:33:26;101710.16;;;5.58;90.28
61506;BME280;47366;51.916;4.574;2022-12-07T14:35:51;101715.59;;;5.55;90.95
61506;BME280;47366;51.916;4.574;2022-12-07T14:38:22;101714.13;;;5.43;90.68
61506;BME280;47366;51.916;4.574;2022-12-07T14:40:49;101703.53;;;5.37;91.03
61506;BME280;47366;51.916;4.574;2022-12-07T14:43:16;101705.38;;;5.35;90.77
61506;BME280;47366;51.916;4.574;2022-12-07T14:45:42;101708.19;;;5.30;91.15
61506;BME280;47366;51.916;4.574;2022-12-07T14:48:12;101695.63;;;5.31;91.59
61506;BME280;47366;51.916;4.574;2022-12-07T14:50:48;101693.00;;;5.29;91.65
61506;BME280;47366;51.916;4.574;2022-12-07T14:53:16;101702.03;;;5.27;91.91
61506;BME280;47366;51.916;4.574;2022-12-07T14:55:42;101690.38;;;5.26;91.92
61506;BME280;47366;51.916;4.574;2022-12-07T14:58:13;101680.59;;;5.24;92.48
61506;BME280;47366;51.916;4.574;2022-12-07T15:00:39;101682.38;;;5.25;92.46
61506;BME280;47366;51.916;4.574;2022-12-07T15:03:04;101691.44;;;5.21;92.14
61506;BME280;47366;51.916;4.574;2022-12-07T15:05:30;101687.03;;;5.18;92.28
61506;BME280;47366;51.916;4.574;2022-12-07T15:07:55;101686.19;;;5.15;92.43
61506;BME280;47366;51.916;4.574;2022-12-07T15:10:23;101688.06;;;5.13;92.67
61506;BME280;47366;51.916;4.574;2022-12-07T15:12:49;101691.66;;;5.11;92.73
61506;BME280;47366;51.916;4.574;2022-12-07T15:15:15;101691.69;;;5.10;93.13